createdAt,value
2024-05-09T00:00:52.596Z,11.90
2024-05-09T00:04:56.646Z,11.20
2024-05-09T00:08:34.589Z,12.00
2024-05-09T00:12:11.068Z,11.70
2024-05-09T00:15:48.075Z,13.30
2024-05-09T00:19:28.227Z,14.30
2024-05-09T00:23:06.515Z,11.90
2024-05-09T00:26:39.350Z,15.80
2024-05-09T00:30:31.029Z,10.50
2024-05-09T00:34:01.171Z,14.20
2024-05-09T00:37:39.091Z,13.60
2024-05-09T00:41:17.130Z,8.40
2024-05-09T00:44:54.148Z,10.90
2024-05-09T00:48:32.938Z,11.60
2024-05-09T00:52:10.334Z,11.40
2024-05-09T00:55:46.425Z,10.40
2024-05-09T00:59:24.639Z,8.80
2024-05-09T01:03:03.039Z,10.10
2024-05-09T01:06:40.498Z,7.40
2024-05-09T01:10:21.279Z,7.20
2024-05-09T01:13:54.515Z,7.80
2024-05-09T01:17:32.689Z,8.40
2024-05-09T01:21:11.395Z,7.00
2024-05-09T01:24:48.635Z,8.90
2024-05-09T01:28:23.296Z,7.70
2024-05-09T01:32:07.311Z,9.10
2024-05-09T01:35:45.056Z,7.30
2024-05-09T01:39:21.146Z,12.00
2024-05-09T01:43:00.389Z,10.40
2024-05-09T01:46:38.088Z,11.10
2024-05-09T01:50:16.657Z,11.90
2024-05-09T01:53:49.910Z,10.40
2024-05-09T01:57:34.420Z,13.80
2024-05-09T02:01:10.784Z,11.70
2024-05-09T02:04:47.820Z,12.90
2024-05-09T02:08:32.117Z,12.00
2024-05-09T02:12:09.782Z,15.90
2024-05-09T02:15:44.449Z,11.60
2024-05-09T02:19:28.446Z,15.30
2024-05-09T02:23:06.218Z,12.60
2024-05-09T02:26:41.276Z,13.50
2024-05-09T02:30:30.013Z,12.90
2024-05-09T02:33:59.260Z,11.00
2024-05-09T02:37:33.670Z,12.50
2024-05-09T02:41:17.578Z,11.60
2024-05-09T02:44:51.998Z,13.20
2024-05-09T02:48:32.464Z,13.50
2024-05-09T02:52:19.614Z,14.20
2024-05-09T02:55:50.671Z,11.40
2024-05-09T02:59:35.187Z,15.40
2024-05-09T03:03:14.377Z,11.20
2024-05-09T03:06:46.614Z,11.70
2024-05-09T03:10:35.950Z,11.90
2024-05-09T03:14:05.318Z,15.00
2024-05-09T03:17:49.364Z,13.50
2024-05-09T03:21:26.845Z,12.50
2024-05-09T03:25:04.876Z,14.30
2024-05-09T03:28:44.916Z,13.90
2024-05-09T03:32:18.598Z,14.40
2024-05-09T03:35:56.623Z,11.60
2024-05-09T03:39:35.683Z,12.50
2024-05-09T03:43:12.854Z,13.70
2024-05-09T03:46:51.061Z,14.00
2024-05-09T03:50:33.661Z,13.30
2024-05-09T03:54:07.728Z,17.70
2024-05-09T03:57:42.562Z,17.40
2024-05-09T04:01:20.416Z,13.40
2024-05-09T04:04:57.891Z,10.30
2024-05-09T04:08:37.327Z,11.00
2024-05-09T04:12:15.627Z,8.20
2024-05-09T04:15:51.191Z,24.60
2024-05-09T04:19:30.588Z,10.50
2024-05-09T04:23:12.010Z,13.60
2024-05-09T04:26:45.726Z,10.70
2024-05-09T04:30:33.672Z,11.20
2024-05-09T04:33:59.747Z,11.10
2024-05-09T04:37:39.463Z,16.30
2024-05-09T04:41:17.251Z,13.10
2024-05-09T04:44:56.427Z,14.70
2024-05-09T04:48:30.550Z,17.70
2024-05-09T05:16:24.748Z,44.50
2024-05-09T05:19:17.561Z,14.40
2024-05-09T05:22:53.645Z,25.50
2024-05-09T05:26:34.033Z,18.80
2024-05-09T05:30:14.767Z,20.00
2024-05-09T05:33:48.757Z,21.30
2024-05-09T05:37:24.663Z,27.30
2024-05-09T05:41:02.345Z,31.70
2024-05-09T05:44:41.367Z,20.50
2024-05-09T05:48:18.402Z,22.30
2024-05-09T05:51:55.341Z,20.50
2024-05-09T05:55:34.516Z,27.10
2024-05-09T05:59:15.060Z,27.20
2024-05-09T06:02:48.556Z,26.50
2024-05-09T06:06:26.156Z,33.20
2024-05-09T06:10:07.256Z,22.90
2024-05-09T06:13:43.833Z,25.80
2024-05-09T06:17:19.418Z,28.10
2024-05-09T06:20:57.312Z,35.60
2024-05-09T06:24:42.845Z,22.30
2024-05-09T06:28:11.087Z,22.90
2024-05-09T06:31:54.404Z,18.00
2024-05-09T06:35:31.278Z,14.30
2024-05-09T06:39:10.098Z,16.30
2024-05-09T06:42:47.927Z,7.50
2024-05-09T06:46:25.221Z,7.10
2024-05-09T06:50:03.529Z,6.80
2024-05-09T06:53:40.762Z,6.00
2024-05-09T06:57:19.377Z,8.50
2024-05-09T07:00:55.006Z,7.90
2024-05-09T07:04:32.958Z,7.10
2024-05-09T07:08:12.116Z,7.60
2024-05-09T07:11:50.321Z,6.70
2024-05-09T07:15:27.407Z,7.10
2024-05-09T07:19:03.744Z,11.50
2024-05-09T07:22:41.837Z,7.50
2024-05-09T07:26:20.976Z,5.90
2024-05-09T07:29:58.354Z,8.60
2024-05-09T07:33:32.955Z,6.30
2024-05-09T07:37:15.506Z,7.40
2024-05-09T07:40:54.898Z,11.00
2024-05-09T07:44:31.647Z,4.10
2024-05-09T07:49:44.502Z,6.10
2024-05-09T07:53:21.717Z,8.00
2024-05-09T07:55:32.601Z,12.40
2024-05-09T07:59:05.911Z,8.80
2024-05-09T08:02:43.725Z,14.00
2024-05-09T08:06:37.546Z,5.40
2024-05-09T08:09:57.005Z,5.40
2024-05-09T08:13:44.673Z,5.90
2024-05-09T08:17:16.504Z,3.50
2024-05-09T08:20:48.428Z,4.40
2024-05-09T08:24:30.812Z,7.60
2024-05-09T08:28:06.964Z,4.40
2024-05-09T08:31:59.470Z,2.60
2024-05-09T08:35:29.088Z,4.60
2024-05-09T08:39:04.667Z,3.50
2024-05-09T08:42:52.572Z,4.10
2024-05-09T08:46:26.688Z,4.80
2024-05-09T08:50:03.147Z,3.50
2024-05-09T08:53:47.937Z,2.70
2024-05-09T08:57:25.767Z,3.80
2024-05-09T09:01:00.194Z,3.80
2024-05-09T09:04:37.920Z,3.00
2024-05-09T09:08:14.630Z,1.90
2024-05-09T09:22:15.712Z,8.50
2024-05-09T09:25:12.852Z,4.20
2024-05-09T09:28:44.907Z,3.20
2024-05-09T09:32:29.048Z,4.10
2024-05-09T09:35:54.535Z,2.80
2024-05-09T09:39:49.037Z,2.80
2024-05-09T09:43:19.448Z,5.40
2024-05-09T09:47:04.912Z,3.50
2024-05-09T09:50:41.200Z,4.00
2024-05-09T09:54:21.595Z,1.90
2024-05-09T09:57:46.490Z,2.80
2024-05-09T10:01:21.233Z,4.00
2024-05-09T10:05:12.546Z,6.90
2024-05-09T10:08:54.075Z,4.80
2024-05-09T10:12:22.948Z,2.90
2024-05-09T10:15:58.329Z,3.70
2024-05-09T10:19:48.867Z,3.40
2024-05-09T10:23:27.349Z,4.40
2024-05-09T10:27:04.008Z,4.80
2024-05-09T10:30:35.921Z,8.60
2024-05-09T10:34:17.495Z,9.20
2024-05-09T10:37:53.330Z,3.60
2024-05-09T10:41:23.825Z,3.40
2024-05-09T10:45:08.904Z,8.10
2024-05-09T10:48:41.333Z,6.00
2024-05-09T11:02:50.529Z,7.30
2024-05-09T11:05:42.754Z,7.70
2024-05-09T11:09:29.449Z,3.50
2024-05-09T11:12:59.316Z,20.10
2024-05-09T11:16:43.323Z,4.00
2024-05-09T11:20:37.327Z,3.90
2024-05-09T11:24:00.610Z,4.80
2024-05-09T11:27:27.928Z,5.30
2024-05-09T11:31:12.095Z,4.40
2024-05-09T11:34:49.217Z,2.70
2024-05-09T11:38:27.646Z,4.50
2024-05-09T11:42:00.696Z,13.80
2024-05-09T11:45:40.517Z,7.90
2024-05-09T11:49:27.154Z,3.30
2024-05-09T11:53:00.534Z,2.30
2024-05-09T11:56:32.414Z,3.30
2024-05-09T12:00:14.801Z,5.20
2024-05-09T12:03:45.605Z,7.00
2024-05-09T12:07:27.694Z,8.70
2024-05-09T12:11:05.288Z,5.00
2024-05-09T12:14:36.125Z,3.70
2024-05-09T12:18:28.177Z,4.00
2024-05-09T12:22:08.530Z,5.90
2024-05-09T12:25:35.768Z,3.50
2024-05-09T12:29:09.738Z,10.80
2024-05-09T12:33:11.852Z,2.50
2024-05-09T12:36:28.360Z,3.80
2024-05-09T12:40:18.568Z,4.40
2024-05-09T12:43:51.545Z,4.30
2024-05-09T12:47:26.215Z,8.90
2024-05-09T12:51:05.728Z,10.70
2024-05-09T12:54:45.506Z,15.60
2024-05-09T12:58:21.713Z,8.30
2024-05-09T13:01:59.561Z,5.30
2024-05-09T13:05:47.343Z,3.00
2024-05-09T13:09:13.896Z,4.60
2024-05-09T13:12:52.291Z,4.30
2024-05-09T13:16:30.815Z,5.70
2024-05-09T13:20:09.281Z,5.30
2024-05-09T13:34:10.819Z,4.30
2024-05-09T13:37:01.642Z,3.70
2024-05-09T13:40:39.903Z,4.60
2024-05-09T13:44:18.995Z,3.90
2024-05-09T13:47:56.753Z,5.70
2024-05-09T13:51:32.743Z,8.60
2024-05-09T13:55:12.063Z,6.10
2024-05-09T13:58:46.548Z,3.00
2024-05-09T14:02:32.275Z,5.60
2024-05-09T14:06:11.299Z,4.00
2024-05-09T14:09:46.982Z,3.40
2024-05-09T14:13:21.966Z,3.40
2024-05-09T14:16:59.894Z,4.20
2024-05-09T14:20:39.262Z,3.60
2024-05-09T14:24:15.151Z,4.00
2024-05-09T14:27:52.621Z,5.10
2024-05-09T14:31:30.564Z,7.10
2024-05-09T14:35:08.246Z,2.80
2024-05-09T14:38:46.015Z,4.10
2024-05-09T14:42:42.676Z,6.60
2024-05-09T14:46:01.726Z,5.80
2024-05-09T14:49:42.035Z,4.10
2024-05-09T14:53:17.223Z,2.90
2024-05-09T14:56:54.824Z,2.90
2024-05-09T15:00:35.947Z,5.30
2024-05-09T15:04:10.081Z,3.20
2024-05-09T15:07:49.400Z,6.70
2024-05-09T15:11:25.423Z,4.60
2024-05-09T15:15:03.999Z,7.40
2024-05-09T15:18:44.053Z,7.10
2024-05-09T15:22:20.339Z,6.50
2024-05-09T15:25:55.393Z,2.90
2024-05-09T15:29:32.196Z,3.70
2024-05-09T15:33:16.603Z,4.90
2024-05-09T15:36:52.375Z,7.00
2024-05-09T15:40:36.110Z,5.00
2024-05-09T15:44:20.438Z,3.80
2024-05-09T16:39:58.176Z,2.70
2024-05-09T16:42:48.449Z,4.30
2024-05-09T16:46:24.747Z,5.30
2024-05-09T16:50:10.694Z,4.50
2024-05-09T16:53:44.830Z,2.80
2024-05-09T16:57:20.579Z,3.60
2024-05-09T17:01:04.781Z,3.20
2024-05-09T17:04:46.532Z,2.50
2024-05-09T17:08:20.419Z,8.30
2024-05-09T17:12:20.778Z,10.10
2024-05-09T17:15:43.191Z,21.50
2024-05-09T17:19:20.039Z,9.50
2024-05-09T17:23:14.659Z,6.40
2024-05-09T18:32:18.146Z,5.40
2024-05-09T18:35:10.899Z,7.60
2024-05-09T18:38:52.034Z,4.70
2024-05-09T18:42:24.526Z,9.90
2024-05-09T18:46:03.945Z,4.60
2024-05-09T18:49:40.205Z,7.80
2024-05-09T18:53:19.453Z,6.80
2024-05-09T18:56:55.483Z,13.00
2024-05-09T19:00:37.081Z,11.20
2024-05-09T19:04:11.263Z,12.00
2024-05-09T19:07:50.431Z,18.50
2024-05-09T19:11:26.381Z,24.00
2024-05-09T19:15:04.447Z,22.80
2024-05-09T19:18:42.129Z,17.10
2024-05-09T19:22:22.087Z,13.00
2024-05-09T19:25:59.159Z,18.30
2024-05-09T19:29:35.466Z,20.40
2024-05-09T19:33:13.851Z,35.50
2024-05-09T19:37:01.274Z,32.10
2024-05-09T19:40:36.831Z,31.30
2024-05-09T19:44:11.852Z,29.50
2024-05-09T19:47:48.409Z,23.90
2024-05-09T19:51:33.122Z,21.20
2024-05-09T19:55:06.668Z,23.10
2024-05-09T19:58:49.283Z,35.00
2024-05-09T20:02:26.669Z,28.50
2024-05-09T20:06:06.230Z,48.50
2024-05-09T20:09:43.885Z,38.20
2024-05-09T20:13:18.383Z,42.20
2024-05-09T20:17:01.213Z,33.80
2024-05-09T20:20:40.341Z,26.30
2024-05-09T20:24:26.863Z,22.10
2024-05-09T20:28:01.493Z,14.60
2024-05-09T20:31:45.178Z,23.90
2024-05-09T20:35:19.619Z,14.10
2024-05-09T20:39:03.274Z,27.10
2024-05-09T20:42:43.952Z,22.00
2024-05-09T20:46:17.619Z,22.90
2024-05-09T20:49:55.211Z,29.00
2024-05-09T20:53:34.374Z,19.80
2024-05-09T20:57:12.103Z,23.00
2024-05-09T21:00:46.658Z,25.20
2024-05-09T21:04:31.855Z,22.70
2024-05-09T21:08:09.030Z,16.90
2024-05-09T21:11:47.370Z,19.80
2024-05-09T21:15:20.636Z,20.60
2024-05-09T21:19:09.090Z,18.10
2024-05-09T21:22:38.615Z,19.30
2024-05-09T21:26:23.690Z,16.80
2024-05-09T21:29:59.932Z,22.10
2024-05-09T21:33:38.011Z,20.20
2024-05-09T21:37:12.329Z,13.70
2024-05-09T21:40:56.915Z,19.70
2024-05-09T21:44:34.008Z,18.60
2024-05-09T21:48:09.013Z,15.00
2024-05-09T21:51:52.937Z,17.80
2024-05-09T21:55:30.524Z,13.10
2024-05-09T21:59:04.573Z,13.60
2024-05-09T22:02:47.017Z,14.60
2024-05-09T22:06:22.434Z,14.60
2024-05-09T22:10:06.401Z,12.90
2024-05-09T22:13:40.394Z,15.10
2024-05-09T22:17:24.362Z,13.00
2024-05-09T22:21:01.892Z,13.10
2024-05-09T22:24:38.194Z,16.60
2024-05-09T22:28:16.131Z,16.10
2024-05-09T22:31:55.507Z,10.80
2024-05-09T22:35:37.857Z,13.20
2024-05-09T22:39:19.115Z,13.10
2024-05-09T22:42:45.075Z,16.20
2024-05-09T22:46:25.662Z,17.40
2024-05-09T22:50:12.851Z,11.50
2024-05-09T22:53:47.459Z,12.20
2024-05-09T22:57:25.054Z,10.50
2024-05-09T23:00:59.432Z,9.90
2024-05-09T23:04:43.250Z,11.10
2024-05-09T23:08:21.630Z,13.00
2024-05-09T23:11:57.311Z,13.20
2024-05-09T23:15:33.036Z,13.10
2024-05-09T23:19:17.138Z,11.40
2024-05-09T23:22:54.615Z,18.30
2024-05-09T23:26:28.689Z,12.30
2024-05-09T23:30:12.600Z,10.90
2024-05-09T23:33:50.549Z,8.80
2024-05-09T23:37:28.466Z,10.70
2024-05-09T23:41:02.235Z,11.30
2024-05-09T23:44:46.273Z,8.60
2024-05-09T23:48:22.561Z,7.70
2024-05-09T23:52:01.363Z,12.80
2024-05-09T23:55:39.775Z,9.40
2024-05-09T23:59:17.122Z,8.40
